עמוד ראשי
METAR-TAF:

METAR-TAF

שדות תעופה :

אל-כופרה, לוב

קו רוחב: 24-13N, קו אורך: 023-18E, גובה: 417מטר

METAR: חסר

זמן: 02:29 (00:29 UTC)

תחזית

הדו"ח נערך לפני 1 שעות ו 29דקות, בשעה 23:00 UTC
תחזית בתוקף מ 16 ב 00 UTC עד 16 ב 24 UTC
רוח 12קשר מכיוון צפון-מזרח
ראות: 8000מטר

TAF: HLKF 152300Z 1600/1624 04012KT 8000 NSC

תצפיות ותחזיות מזג אוויר לגבי יותר מ- 4,000 שדות תעופה ברחבי העולם. דוחות METAR ו- TAF.

התחנות הזמינות מסומנות בנקודות צהובות ואדומות על גבי המפה.

העבר את העכבר לנקודה הצבעונית על מנת לראות את שם התחנה.

לאחר מכן, לחץ כדי לראות את תוכן ואת תחזיות מזג האוויר.

כדי לשנות את המפה: לחץ על הכפתורים הירוקים עם הפלוס השחור כדי להתקרב; על הכפתור הירוק עם המקף כדי להתרחק; או בחיצים הירוקים למפות סמוכות.


METAR-TAF: